Southwest Georgia Regional Airport Albany US
ICAO: KABY
IATA: ABY
Category: Medium
Scheduled Services: Yes

Elevation: 197 ft
TransAlt. 18000 ft.

Airport Communications:
ATIS:133.05
JACKSONVILLE CNTR:125.75
CTAF:120.25
GND:121.9
MACON RDO:122.6
TWR:120.25
UNICOM:122.95

KABY Zoom In..

Runways:

(A) RW 04 length 6601 ft width 148 ft
ILS 108.50 / hdg 44

(B) RW 16 length 5219 ft width 148 ft
---- / hdg 164

(C) RW 22 length 6601 ft width 148 ft
---- / hdg 224

(D) RW 34 length 5219 ft width 148 ft
---- / hdg 344

Location; KABY
Day. 16 / Time. 17.53 Zulu
* Altimeter: 30.06
* Temperature: 32° c. 89.6°f.
* Wind from: VRB° Speed 04 kn.
Dewpoint: 24° c.
Visibility: 10 Statute Miles.
Clouds: Broken 2900 ft.

KABY 161753Z VRB04KT 10SM BKN029 32/24 A3006 RMK AO2 SLP177 T03220239 10322 20239 58008


Wind From VRB°
Speed 04 kn.

 
 
jpsmedia.com for Web Design worldairports.se 2018   terms of use